Time;durP1;ratioP1;P1;durP2;ratioP2;P2;SDS_P1;SDS_P2;PMS_P1;PMS_P2;Temp;Humidity;BMP_temperature;BMP_pressure;BME280_temperature;BME280_humidity;BME280_pressure;Samples;Min_cycle;Max_cycle;Signal;HPM_P1;HPM_P2
2023/03/02 00:01:23;;;;;;;35.63;24.27;;;3.60;99.90;;;;;;5049838;28;20040;-65
2023/03/02 00:03:49;;;;;;;35.10;23.38;;;3.60;99.90;;;;;;5049949;28;20052;-66
2023/03/02 00:06:15;;;;;;;32.30;22.70;;;3.60;99.90;;;;;;5048507;28;20083;-65
2023/03/02 00:08:41;;;;;;;31.63;22.42;;;3.50;99.90;;;;;;5049805;28;20144;-64
2023/03/02 00:11:07;;;;;;;32.38;22.13;;;3.50;99.90;;;;;;5049106;28;20032;-66
2023/03/02 00:13:35;;;;;;;34.25;22.10;;;3.50;99.90;;;;;;5049698;28;20045;-65
2023/03/02 00:16:01;;;;;;;33.63;22.58;;;3.40;99.90;;;;;;5049294;28;20752;-64
2023/03/02 00:18:27;;;;;;;34.53;22.23;;;3.40;99.90;;;;;;5050068;28;20122;-65
2023/03/02 00:20:52;;;;;;;34.17;22.05;;;3.40;99.90;;;;;;5050009;28;20044;-64
2023/03/02 00:23:18;;;;;;;32.55;21.52;;;3.40;99.90;;;;;;5050013;28;20045;-65
2023/03/02 00:25:44;;;;;;;32.13;22.35;;;3.30;99.90;;;;;;5049334;28;20076;-65
2023/03/02 00:28:09;;;;;;;32.83;21.70;;;3.30;99.90;;;;;;5049551;28;20037;-65
2023/03/02 00:30:37;;;;;;;33.70;21.50;;;3.30;99.90;;;;;;5049197;28;20044;-65
2023/03/02 00:33:02;;;;;;;33.28;21.40;;;3.30;99.90;;;;;;5049424;28;20032;-66
2023/03/02 00:35:28;;;;;;;31.73;22.55;;;3.20;99.90;;;;;;5049352;28;20035;-66
2023/03/02 00:37:54;;;;;;;34.25;21.98;;;3.20;99.90;;;;;;5047460;28;20045;-65
2023/03/02 00:40:19;;;;;;;31.65;22.42;;;3.20;99.90;;;;;;5049283;28;20037;-65
2023/03/02 00:42:45;;;;;;;34.17;22.40;;;3.30;99.90;;;;;;5049218;28;20116;-64
2023/03/02 00:45:11;;;;;;;34.15;22.85;;;3.30;99.90;;;;;;5049250;28;20036;-65
2023/03/02 00:47:37;;;;;;;34.42;23.30;;;3.20;99.90;;;;;;5047011;28;20056;-66
2023/03/02 00:50:05;;;;;;;36.17;22.58;;;3.30;99.90;;;;;;5048771;28;20411;-65
2023/03/02 00:52:32;;;;;;;34.72;21.88;;;3.30;99.90;;;;;;5049250;28;20503;-65
2023/03/02 00:54:58;;;;;;;32.88;22.02;;;3.30;99.90;;;;;;5049106;28;20044;-65
2023/03/02 00:57:23;;;;;;;32.47;21.58;;;3.30;99.90;;;;;;5048965;28;20408;-65
2023/03/02 00:59:49;;;;;;;31.60;20.67;;;3.30;99.90;;;;;;5049812;28;20487;-64
2023/03/02 01:02:15;;;;;;;33.75;21.85;;;3.30;99.90;;;;;;5032565;28;20044;-65
2023/03/02 01:04:42;;;;;;;33.95;22.95;;;3.30;99.90;;;;;;5048799;28;20120;-66
2023/03/02 01:07:14;;;;;;;33.63;22.08;;;3.30;99.90;;;;;;5049143;28;20401;-65
2023/03/02 01:09:42;;;;;;;29.57;20.60;;;3.20;99.90;;;;;;5031887;28;20049;-64
2023/03/02 01:12:10;;;;;;;32.15;21.15;;;3.20;99.90;;;;;;5049134;28;20047;-66
2023/03/02 01:14:41;;;;;;;34.00;22.90;;;3.30;99.90;;;;;;5049136;28;20041;-66
2023/03/02 01:17:09;;;;;;;34.78;21.75;;;3.30;99.90;;;;;;5050087;28;20059;-64
2023/03/02 01:19:35;;;;;;;32.15;22.42;;;3.20;99.90;;;;;;5045782;28;20043;-64
2023/03/02 01:22:01;;;;;;;33.55;22.20;;;3.20;99.90;;;;;;5046113;28;20091;-64
2023/03/02 01:24:27;;;;;;;33.92;21.83;;;3.20;99.90;;;;;;5048709;28;20037;-66
2023/03/02 01:26:53;;;;;;;33.05;22.33;;;3.20;99.90;;;;;;5049725;28;20124;-66
2023/03/02 01:29:18;;;;;;;34.05;21.52;;;3.20;99.90;;;;;;5031112;28;20075;-65
2023/03/02 01:31:44;;;;;;;33.38;22.05;;;3.20;99.90;;;;;;5047654;28;20419;-65
2023/03/02 01:34:10;;;;;;;33.55;22.63;;;3.20;99.90;;;;;;5048356;28;20091;-66
2023/03/02 01:36:35;;;;;;;35.65;22.75;;;3.20;99.90;;;;;;5046479;28;20540;-65
2023/03/02 01:39:01;;;;;;;34.38;22.73;;;3.20;99.90;;;;;;5047594;28;20044;-66
2023/03/02 01:41:27;;;;;;;39.67;24.17;;;3.20;99.90;;;;;;5048895;28;20064;-64
2023/03/02 01:43:53;;;;;;;36.42;22.70;;;3.10;99.90;;;;;;5048561;28;20029;-65
2023/03/02 01:46:27;;;;;;;37.45;24.10;;;3.10;99.90;;;;;;5048296;28;20033;-65
2023/03/02 01:48:57;;;;;;;40.13;26.00;;;3.00;99.90;;;;;;5047521;28;20065;-65
2023/03/02 01:51:25;;;;;;;37.92;24.10;;;3.00;99.90;;;;;;5048507;28;20044;-65
2023/03/02 01:53:59;;;;;;;39.05;25.20;;;3.00;99.90;;;;;;5048676;28;20076;-65
2023/03/02 01:56:33;;;;;;;41.67;26.45;;;3.00;99.90;;;;;;5048522;28;20103;-64
2023/03/02 01:59:07;;;;;;;39.25;25.02;;;3.00;99.90;;;;;;5047869;28;20033;-65
2023/03/02 02:01:36;;;;;;;42.03;26.50;;;3.00;99.90;;;;;;5048594;28;20036;-66
2023/03/02 02:04:02;;;;;;;43.15;27.13;;;3.00;99.90;;;;;;5048306;28;20064;-64
2023/03/02 02:06:36;;;;;;;41.08;26.00;;;3.00;99.90;;;;;;5034084;28;20044;-65
2023/03/02 02:09:03;;;;;;;43.38;26.85;;;3.00;99.90;;;;;;5031670;28;20094;-65
2023/03/02 02:11:29;;;;;;;44.75;27.75;;;3.00;99.90;;;;;;5046428;28;20040;-64
2023/03/02 02:13:58;;;;;;;46.92;27.15;;;3.00;99.90;;;;;;5048511;28;20524;-65
2023/03/02 02:16:25;;;;;;;42.90;26.90;;;3.00;99.90;;;;;;5046884;28;20072;-64
2023/03/02 02:18:51;;;;;;;44.45;27.48;;;3.00;99.90;;;;;;5048301;28;20068;-64
2023/03/02 02:21:18;;;;;;;43.38;27.13;;;3.00;99.90;;;;;;5047397;28;20037;-65
2023/03/02 02:24:07;;;;;;;43.97;26.85;;;3.00;99.90;;;;;;5048547;28;20122;-65
2023/03/02 02:26:41;;;;;;;45.17;28.88;;;3.00;99.90;;;;;;5029949;28;20053;-65
2023/03/02 02:29:21;;;;;;;46.25;28.83;;;3.00;99.90;;;;;;5030337;28;20143;-65
2023/03/02 02:31:56;;;;;;;46.05;28.48;;;3.00;99.90;;;;;;5029935;28;20546;-65
2023/03/02 02:34:36;;;;;;;46.83;27.45;;;3.10;99.90;;;;;;5031579;28;20111;-64
2023/03/02 02:37:24;;;;;;;40.10;26.77;;;3.10;99.90;;;;;;5033964;28;20144;-65
2023/03/02 02:39:51;;;;;;;43.50;26.27;;;3.10;99.90;;;;;;5066897;28;20037;-66
2023/03/02 02:42:39;;;;;;;40.60;25.63;;;3.00;99.90;;;;;;5032121;28;20037;-64
2023/03/02 02:45:16;;;;;;;43.10;25.50;;;3.00;99.90;;;;;;5033774;28;20128;-64
2023/03/02 02:47:42;;;;;;;41.97;27.15;;;3.00;99.90;;;;;;5031789;28;20154;-66
2023/03/02 02:50:21;;;;;;;39.35;26.13;;;2.90;99.90;;;;;;5034832;28;20055;-64
2023/03/02 02:53:02;;;;;;;42.13;26.05;;;2.90;99.90;;;;;;5032958;28;20443;-64
2023/03/02 02:55:29;;;;;;;40.42;25.67;;;2.90;99.90;;;;;;5032720;28;20147;-66
2023/03/02 02:57:57;;;;;;;40.88;24.95;;;2.90;99.90;;;;;;5033544;28;20396;-65
2023/03/02 03:00:24;;;;;;;41.42;25.50;;;2.90;99.90;;;;;;5032918;28;20041;-65
2023/03/02 03:03:02;;;;;;;41.13;25.42;;;2.80;99.90;;;;;;5032290;28;20056;-64
2023/03/02 03:05:27;;;;;;;40.97;25.73;;;2.80;99.90;;;;;;5049094;28;20048;-65
2023/03/02 03:08:06;;;;;;;41.58;24.30;;;2.90;99.90;;;;;;5051003;28;20041;-65
2023/03/02 03:10:38;;;;;;;40.25;25.27;;;2.80;99.90;;;;;;5051161;28;20039;-65
2023/03/02 03:13:07;;;;;;;38.42;24.50;;;2.80;99.90;;;;;;5051139;28;20052;-65
2023/03/02 03:15:33;;;;;;;38.28;24.60;;;2.80;99.90;;;;;;5051158;28;20044;-64
2023/03/02 03:17:59;;;;;;;38.45;24.85;;;2.80;99.90;;;;;;5050885;28;20068;-65
2023/03/02 03:20:26;;;;;;;34.63;23.05;;;2.80;99.90;;;;;;5050933;28;20061;-65
2023/03/02 03:22:58;;;;;;;36.75;22.90;;;2.70;99.90;;;;;;5051946;28;20067;-64
2023/03/02 03:25:25;;;;;;;36.35;23.80;;;2.70;99.90;;;;;;5048115;28;20583;-63
2023/03/02 03:27:51;;;;;;;39.42;23.40;;;2.70;99.90;;;;;;5050877;28;20095;-65
2023/03/02 03:30:17;;;;;;;39.22;23.63;;;2.70;99.90;;;;;;5050889;28;20049;-66
2023/03/02 03:32:43;;;;;;;37.97;23.92;;;2.70;99.90;;;;;;5036147;28;20048;-65
2023/03/02 03:35:10;;;;;;;36.33;23.25;;;2.70;99.90;;;;;;5050338;28;20060;-65
2023/03/02 03:37:40;;;;;;;37.70;23.17;;;2.60;99.90;;;;;;5033989;28;20411;-65
2023/03/02 03:40:08;;;;;;;35.15;22.73;;;2.60;99.90;;;;;;5050402;28;20037;-66
2023/03/02 03:42:35;;;;;;;36.53;23.63;;;2.60;99.90;;;;;;5050413;28;20043;-65
2023/03/02 03:45:01;;;;;;;38.13;23.92;;;2.50;99.90;;;;;;5050114;28;20428;-64
2023/03/02 03:47:26;;;;;;;37.38;23.63;;;2.50;99.90;;;;;;5033340;28;20128;-65
2023/03/02 03:49:52;;;;;;;36.60;23.20;;;2.50;99.90;;;;;;5033990;28;20059;-65
2023/03/02 03:52:29;;;;;;;35.25;22.70;;;2.50;99.90;;;;;;5050114;28;20373;-65
2023/03/02 03:55:00;;;;;;;38.50;22.50;;;2.40;99.90;;;;;;5050532;28;20510;-65
2023/03/02 03:57:27;;;;;;;39.20;23.75;;;2.40;99.90;;;;;;5032310;28;20049;-63
2023/03/02 03:59:53;;;;;;;37.25;23.73;;;2.40;99.90;;;;;;5050157;28;20047;-66
2023/03/02 04:02:20;;;;;;;38.58;23.33;;;2.40;99.90;;;;;;5050229;28;20457;-64
2023/03/02 04:04:45;;;;;;;36.53;22.67;;;2.40;99.90;;;;;;5050277;28;20525;-65
2023/03/02 04:07:12;;;;;;;36.42;23.13;;;2.40;99.90;;;;;;5049463;28;20068;-64
2023/03/02 04:09:38;;;;;;;38.40;23.65;;;2.30;99.90;;;;;;5078951;28;20053;-65
2023/03/02 04:12:05;;;;;;;38.10;23.25;;;2.40;99.90;;;;;;5049841;28;20116;-65
2023/03/02 04:14:31;;;;;;;41.05;24.50;;;2.40;99.90;;;;;;5049906;28;20089;-64
2023/03/02 04:16:57;;;;;;;40.67;24.85;;;2.40;99.90;;;;;;5049854;28;20084;-65
2023/03/02 04:19:24;;;;;;;41.60;23.83;;;2.40;99.90;;;;;;5048380;28;20065;-66
2023/03/02 04:21:52;;;;;;;38.05;23.13;;;2.30;99.90;;;;;;5049737;28;20048;-64
2023/03/02 04:24:20;;;;;;;35.40;22.20;;;2.30;99.90;;;;;;5050210;28;20485;-65
2023/03/02 04:26:47;;;;;;;38.55;23.25;;;2.30;99.90;;;;;;5049715;28;20063;-65
2023/03/02 04:29:14;;;;;;;36.30;22.85;;;2.30;99.90;;;;;;5048846;28;20052;-64
2023/03/02 04:31:40;;;;;;;34.00;21.40;;;2.30;99.90;;;;;;5049455;28;20040;-65
2023/03/02 04:34:07;;;;;;;34.88;21.40;;;2.30;99.90;;;;;;5049310;28;20055;-66
2023/03/02 04:36:35;;;;;;;31.88;20.15;;;2.30;99.90;;;;;;5049228;28;20403;-64
2023/03/02 04:39:01;;;;;;;31.45;19.98;;;2.20;99.90;;;;;;5048216;28;20038;-64
2023/03/02 04:41:27;;;;;;;34.08;21.02;;;2.30;99.90;;;;;;5049021;28;20507;-65
2023/03/02 04:43:52;;;;;;;33.80;21.25;;;2.20;99.90;;;;;;5049679;28;20049;-64
2023/03/02 04:46:21;;;;;;;34.88;21.58;;;2.20;99.90;;;;;;5049543;28;20051;-65
2023/03/02 04:48:47;;;;;;;38.78;22.52;;;2.20;99.90;;;;;;5049206;28;20059;-65
2023/03/02 04:51:26;;;;;;;34.45;21.73;;;2.20;99.90;;;;;;5047731;28;20483;-64
2023/03/02 04:53:53;;;;;;;31.85;20.27;;;2.30;99.90;;;;;;5049195;28;20102;-66
2023/03/02 04:56:20;;;;;;;33.78;20.85;;;2.30;99.90;;;;;;5048992;28;20123;-65
2023/03/02 04:58:45;;;;;;;35.00;21.08;;;2.30;99.90;;;;;;5048739;28;20353;-65
2023/03/02 05:01:13;;;;;;;32.22;20.65;;;2.20;99.90;;;;;;5048036;28;20039;-66
2023/03/02 05:03:39;;;;;;;31.70;19.85;;;2.20;99.90;;;;;;5048818;28;20059;-64
2023/03/02 05:06:05;;;;;;;34.13;20.42;;;2.20;99.90;;;;;;5048958;28;20033;-65
2023/03/02 05:08:31;;;;;;;30.13;20.23;;;2.20;99.90;;;;;;5048780;28;20123;-65
2023/03/02 05:10:57;;;;;;;31.15;20.38;;;2.20;99.90;;;;;;5048057;28;20113;-64
2023/03/02 05:13:24;;;;;;;32.20;20.45;;;2.20;99.90;;;;;;5047649;28;20033;-65
2023/03/02 05:15:50;;;;;;;33.22;20.50;;;2.20;99.90;;;;;;5045905;28;20051;-65
2023/03/02 05:18:16;;;;;;;34.33;20.45;;;2.20;99.90;;;;;;5047723;28;20487;-65
2023/03/02 05:20:42;;;;;;;34.88;21.05;;;2.20;99.90;;;;;;5032344;28;20049;-65
2023/03/02 05:23:09;;;;;;;33.88;20.75;;;2.20;99.90;;;;;;5030197;28;20480;-65
2023/03/02 05:25:37;;;;;;;33.88;21.02;;;2.20;99.90;;;;;;5046539;28;21483;-65
2023/03/02 05:28:04;;;;;;;41.22;21.92;;;2.20;99.90;;;;;;5047153;28;20060;-65
2023/03/02 05:30:31;;;;;;;37.85;21.80;;;2.20;99.90;;;;;;5048721;28;20037;-65
2023/03/02 05:32:57;;;;;;;38.92;21.23;;;2.10;99.90;;;;;;5049016;28;20499;-65
2023/03/02 05:35:24;;;;;;;34.95;21.30;;;2.10;99.90;;;;;;5048505;28;20047;-65
2023/03/02 05:37:49;;;;;;;37.25;21.92;;;2.10;99.90;;;;;;5047457;28;20063;-65
2023/03/02 05:40:18;;;;;;;38.20;21.55;;;2.10;99.90;;;;;;5048626;28;20041;-66
2023/03/02 05:42:44;;;;;;;35.95;21.02;;;2.10;99.90;;;;;;5032037;28;20591;-63
2023/03/02 05:45:20;;;;;;;38.80;22.80;;;2.10;99.90;;;;;;5048770;28;20495;-65
2023/03/02 05:47:46;;;;;;;34.53;20.60;;;2.10;99.90;;;;;;5049746;28;20045;-66
2023/03/02 05:50:12;;;;;;;33.15;19.92;;;2.10;99.90;;;;;;5047599;28;20079;-65
2023/03/02 05:52:38;;;;;;;33.10;19.45;;;2.00;99.90;;;;;;5048275;28;20495;-65
2023/03/02 05:55:04;;;;;;;33.40;19.95;;;2.00;99.90;;;;;;5048697;28;20041;-64
2023/03/02 05:57:30;;;;;;;34.88;20.02;;;1.90;99.90;;;;;;5048284;28;20112;-65
2023/03/02 05:59:55;;;;;;;38.25;20.15;;;1.90;99.90;;;;;;5047493;28;20182;-64
2023/03/02 06:02:21;;;;;;;35.83;21.02;;;1.90;99.90;;;;;;5048200;28;20424;-65
2023/03/02 06:04:46;;;;;;;40.72;21.05;;;1.90;99.90;;;;;;5048752;28;20041;-65
2023/03/02 06:07:12;;;;;;;35.55;20.23;;;1.90;99.90;;;;;;5047846;28;20056;-65
2023/03/02 06:09:39;;;;;;;35.92;21.15;;;1.90;99.90;;;;;;5050885;28;20037;-65
2023/03/02 06:12:05;;;;;;;35.95;20.45;;;1.90;99.90;;;;;;5050117;28;20040;-65
2023/03/02 06:14:31;;;;;;;39.90;22.27;;;1.90;99.90;;;;;;5051714;28;20484;-65
2023/03/02 06:16:57;;;;;;;38.15;22.02;;;1.90;99.90;;;;;;5052632;28;20051;-66
2023/03/02 06:19:22;;;;;;;49.08;21.10;;;1.90;99.90;;;;;;5052165;28;20460;-66
2023/03/02 06:21:48;;;;;;;40.33;21.48;;;1.90;99.90;;;;;;5051987;28;20107;-65
2023/03/02 06:24:14;;;;;;;41.38;20.20;;;1.90;99.90;;;;;;5048026;28;20519;-66
2023/03/02 06:26:39;;;;;;;42.30;19.83;;;1.80;99.90;;;;;;5051782;28;20076;-66
2023/03/02 06:29:06;;;;;;;38.85;20.20;;;1.80;99.90;;;;;;5051504;28;20053;-66
2023/03/02 06:31:32;;;;;;;35.65;19.80;;;1.80;99.90;;;;;;5051759;28;20102;-67
2023/03/02 06:33:58;;;;;;;40.00;19.63;;;1.80;99.90;;;;;;5050086;28;20033;-66
2023/03/02 06:36:23;;;;;;;42.33;21.33;;;1.80;99.90;;;;;;5051267;28;20107;-65
2023/03/02 06:38:50;;;;;;;36.55;20.85;;;1.80;99.90;;;;;;5045701;28;20043;-65
2023/03/02 06:41:15;;;;;;;39.13;20.45;;;1.80;99.90;;;;;;5051140;28;20040;-66
2023/03/02 06:43:41;;;;;;;48.85;20.60;;;1.80;99.90;;;;;;5051285;28;20456;-65
2023/03/02 06:46:07;;;;;;;35.65;19.88;;;1.80;99.90;;;;;;5045143;28;20660;-65
2023/03/02 06:48:32;;;;;;;49.92;20.77;;;1.80;99.90;;;;;;5050587;28;20049;-66
2023/03/02 06:50:58;;;;;;;37.45;20.67;;;1.80;99.90;;;;;;5051252;28;20099;-65
2023/03/02 06:53:23;;;;;;;37.33;19.45;;;1.70;99.90;;;;;;5050268;28;20089;-66
2023/03/02 06:55:49;;;;;;;44.03;19.98;;;1.70;99.90;;;;;;5052436;28;20041;-66
2023/03/02 06:58:15;;;;;;;38.20;21.33;;;1.70;99.90;;;;;;5049222;28;20072;-66
2023/03/02 07:00:41;;;;;;;43.10;21.95;;;1.70;99.90;;;;;;5051190;28;20084;-65
2023/03/02 07:03:06;;;;;;;45.97;22.65;;;1.70;99.90;;;;;;5032911;28;20115;-66
2023/03/02 07:05:32;;;;;;;42.08;22.25;;;1.70;99.90;;;;;;5050642;28;20053;-65
2023/03/02 07:07:58;;;;;;;43.17;22.45;;;1.70;99.90;;;;;;5049402;28;20079;-66
2023/03/02 07:10:24;;;;;;;43.05;22.63;;;1.70;99.90;;;;;;5049345;28;20544;-65
2023/03/02 07:12:51;;;;;;;42.25;22.48;;;1.80;99.90;;;;;;5050289;28;20049;-66
2023/03/02 07:15:17;;;;;;;42.78;22.67;;;1.80;99.90;;;;;;5050366;28;20033;-65
2023/03/02 07:17:44;;;;;;;45.95;23.10;;;1.90;99.90;;;;;;5048467;28;22269;-64
2023/03/02 07:20:12;;;;;;;46.63;24.52;;;1.90;99.90;;;;;;5045886;28;20041;-66
2023/03/02 07:22:39;;;;;;;47.97;23.23;;;2.00;99.90;;;;;;5049807;28;20044;-65
2023/03/02 07:25:05;;;;;;;46.08;23.92;;;2.00;99.90;;;;;;5048265;28;20029;-65
2023/03/02 07:27:31;;;;;;;51.30;24.30;;;2.00;99.90;;;;;;5048336;28;20041;-66
2023/03/02 07:29:57;;;;;;;46.85;22.75;;;2.10;99.90;;;;;;5048404;28;20049;-66
2023/03/02 07:32:22;;;;;;;45.00;23.27;;;2.10;99.90;;;;;;5049524;28;20072;-67
2023/03/02 07:34:48;;;;;;;40.65;21.73;;;2.10;99.90;;;;;;5048502;28;20071;-66
2023/03/02 07:37:14;;;;;;;49.30;23.10;;;2.10;99.90;;;;;;5050857;28;20045;-64
2023/03/02 07:39:39;;;;;;;39.45;21.15;;;2.10;99.90;;;;;;5051105;28;20037;-66
2023/03/02 07:42:07;;;;;;;42.15;21.52;;;2.10;99.90;;;;;;5051007;28;20092;-67
2023/03/02 07:44:33;;;;;;;41.28;21.08;;;2.10;99.90;;;;;;5051281;28;20108;-66
2023/03/02 07:46:59;;;;;;;40.70;21.70;;;2.10;99.90;;;;;;5050952;28;20037;-67
2023/03/02 07:49:25;;;;;;;41.13;21.00;;;2.10;99.90;;;;;;5050873;28;20064;-67
2023/03/02 07:51:51;;;;;;;39.50;21.50;;;2.10;99.90;;;;;;5049441;28;20431;-65
2023/03/02 07:54:17;;;;;;;41.35;21.38;;;2.10;99.90;;;;;;5051110;28;20041;-65
2023/03/02 07:56:43;;;;;;;40.05;20.92;;;2.10;99.90;;;;;;5050489;28;20049;-66
2023/03/02 07:59:13;;;;;;;44.17;22.95;;;2.10;99.90;;;;;;5050738;28;20029;-67
2023/03/02 08:01:39;;;;;;;43.95;23.08;;;2.20;99.90;;;;;;5050752;28;20120;-65
2023/03/02 08:04:05;;;;;;;48.55;22.23;;;2.20;99.90;;;;;;5034251;28;20029;-65
2023/03/02 08:06:30;;;;;;;44.30;22.88;;;2.20;99.90;;;;;;5050673;28;20454;-66
2023/03/02 08:08:56;;;;;;;44.83;23.25;;;2.20;99.90;;;;;;5050404;28;20055;-65
2023/03/02 08:11:22;;;;;;;50.30;22.67;;;2.20;99.90;;;;;;5034136;28;20087;-65
2023/03/02 08:13:47;;;;;;;47.47;23.23;;;2.20;99.90;;;;;;5050193;28;20556;-66
2023/03/02 08:16:14;;;;;;;49.15;23.33;;;2.20;99.90;;;;;;5050663;28;20037;-66
2023/03/02 08:18:40;;;;;;;43.90;22.95;;;2.30;99.90;;;;;;5050559;28;20488;-66
2023/03/02 08:21:19;;;;;;;44.90;22.88;;;2.30;99.90;;;;;;5027033;28;20041;-66
2023/03/02 08:23:45;;;;;;;45.40;22.23;;;2.30;99.90;;;;;;5049943;28;20056;-66
2023/03/02 08:26:11;;;;;;;47.17;23.90;;;2.30;99.90;;;;;;5050050;28;20059;-65
2023/03/02 08:28:37;;;;;;;46.70;22.55;;;2.40;99.90;;;;;;5050070;28;20037;-65
2023/03/02 08:31:04;;;;;;;43.75;20.90;;;2.40;99.90;;;;;;5050172;28;20136;-66
2023/03/02 08:33:30;;;;;;;42.47;22.83;;;2.40;99.90;;;;;;5049557;28;20052;-67
2023/03/02 08:36:08;;;;;;;41.60;22.80;;;2.40;99.90;;;;;;5050100;28;20098;-66
2023/03/02 08:38:34;;;;;;;39.97;21.15;;;2.50;99.90;;;;;;5050277;28;20365;-66
2023/03/02 08:41:06;;;;;;;40.22;20.83;;;2.50;99.90;;;;;;5049819;28;20044;-66
2023/03/02 08:43:32;;;;;;;39.53;22.55;;;2.60;99.90;;;;;;5033681;28;20495;-66
2023/03/02 08:45:58;;;;;;;41.67;22.60;;;2.60;99.90;;;;;;5049902;28;20056;-66
2023/03/02 08:48:25;;;;;;;41.20;22.63;;;2.70;99.90;;;;;;5049653;28;20049;-67
2023/03/02 08:50:58;;;;;;;41.65;22.33;;;2.60;99.90;;;;;;5049552;28;20060;-66
2023/03/02 08:53:25;;;;;;;38.38;21.92;;;2.60;99.90;;;;;;5050003;28;20487;-66
2023/03/02 08:55:51;;;;;;;37.55;21.48;;;2.60;99.90;;;;;;5049513;28;20080;-66
2023/03/02 08:58:17;;;;;;;36.67;22.92;;;2.60;99.90;;;;;;5049732;28;20076;-66
2023/03/02 09:00:43;;;;;;;35.17;20.88;;;2.60;99.90;;;;;;5049970;28;20060;-65
2023/03/02 09:03:09;;;;;;;35.08;20.63;;;2.70;99.90;;;;;;5050836;28;20073;-65
2023/03/02 09:05:35;;;;;;;32.15;20.25;;;2.70;99.90;;;;;;5049710;28;20041;-66
2023/03/02 09:08:02;;;;;;;31.25;20.10;;;2.70;99.90;;;;;;5049509;28;20542;-65
2023/03/02 09:10:27;;;;;;;34.58;20.08;;;2.80;99.90;;;;;;5049515;28;20045;-66
2023/03/02 09:12:53;;;;;;;33.40;19.83;;;2.90;99.90;;;;;;5049227;28;20064;-65
2023/03/02 09:15:19;;;;;;;33.58;20.25;;;2.90;99.90;;;;;;5049463;28;20499;-66
2023/03/02 09:17:44;;;;;;;39.70;23.98;;;3.00;99.90;;;;;;5049172;28;20470;-66
2023/03/02 09:20:10;;;;;;;31.20;19.45;;;3.00;99.90;;;;;;5049223;28;20045;-65
2023/03/02 09:22:36;;;;;;;30.92;19.30;;;3.00;99.90;;;;;;5049497;28;20048;-66
2023/03/02 09:25:03;;;;;;;30.63;18.77;;;3.00;99.90;;;;;;5032651;28;20553;-66
2023/03/02 09:27:29;;;;;;;31.75;19.27;;;3.10;99.90;;;;;;5049559;28;20102;-67
2023/03/02 09:29:55;;;;;;;30.13;18.42;;;3.10;99.90;;;;;;5048985;28;20041;-66
2023/03/02 09:32:21;;;;;;;29.17;17.77;;;3.20;99.90;;;;;;5032495;28;20080;-65
2023/03/02 09:34:46;;;;;;;27.98;18.52;;;3.20;99.90;;;;;;5049157;28;20474;-65
2023/03/02 09:37:12;;;;;;;30.85;19.15;;;3.30;99.90;;;;;;5032166;28;20115;-66
2023/03/02 09:39:38;;;;;;;35.85;20.02;;;3.30;99.90;;;;;;5049351;28;20040;-66
2023/03/02 09:42:41;;;;;;;29.85;18.65;;;3.40;99.90;;;;;;5050135;28;20491;-66
2023/03/02 09:45:54;;;;;;;33.20;19.50;;;3.40;99.90;;;;;;5051778;28;20025;-66
2023/03/02 09:48:26;;;;;;;;;;;3.40;99.90;;;;;;5015875;28;20096;-66
2023/03/02 09:51:11;;;;;;;28.52;17.67;;;3.50;99.90;;;;;;5048798;28;19917;-65
2023/03/02 09:53:46;;;;;;;28.80;18.23;;;3.60;99.90;;;;;;5048713;28;20128;-67
2023/03/02 09:56:17;;;;;;;29.60;18.45;;;3.70;99.90;;;;;;5048753;28;20377;-66
2023/03/02 09:59:05;;;;;;;32.15;19.83;;;3.70;99.90;;;;;;5015512;28;20119;-65
2023/03/02 10:01:40;;;;;;;30.05;19.10;;;3.70;99.90;;;;;;5015517;28;20044;-67
2023/03/02 10:04:35;;;;;;;37.60;21.05;;;3.70;99.90;;;;;;5015384;28;20440;-66
2023/03/02 10:07:11;;;;;;;30.50;18.92;;;3.80;99.90;;;;;;5015288;28;20053;-68
2023/03/02 10:09:38;;;;;;;28.48;18.55;;;3.70;99.90;;;;;;5048504;28;20045;-65
2023/03/02 10:12:18;;;;;;;31.00;20.75;;;3.70;99.90;;;;;;5048237;28;20116;-66
2023/03/02 10:15:07;;;;;;;32.92;21.40;;;3.70;99.90;;;;;;5048351;28;20041;-65
2023/03/02 10:17:50;;;;;;;27.98;18.13;;;3.70;99.90;;;;;;5048362;28;20389;-67
2023/03/02 10:20:23;;;;;;;30.48;19.40;;;3.90;99.90;;;;;;5048457;28;20065;-69
2023/03/02 10:22:56;;;;;;;38.58;24.85;;;3.90;99.90;;;;;;5015028;28;20037;-66
2023/03/02 10:25:30;;;;;;;30.13;19.98;;;4.00;99.90;;;;;;5084828;28;20078;-67
2023/03/02 10:28:19;;;;;;;30.17;20.05;;;4.10;99.90;;;;;;5036145;28;20055;-67
2023/03/02 10:30:52;;;;;;;29.38;19.33;;;4.20;99.90;;;;;;5053121;28;20438;-68
2023/03/02 10:33:20;;;;;;;46.38;28.08;;;4.20;99.90;;;;;;5052533;28;20075;-68
2023/03/02 10:35:51;;;;;;;41.28;27.17;;;4.30;99.90;;;;;;5052940;28;20508;-66
2023/03/02 10:38:23;;;;;;;27.20;18.02;;;4.30;99.90;;;;;;5035303;28;20051;-66
2023/03/02 10:40:59;;;;;;;29.27;18.85;;;4.40;99.90;;;;;;5052336;28;20060;-66
2023/03/02 10:43:31;;;;;;;36.63;21.35;;;4.30;99.90;;;;;;5052300;28;20029;-67
2023/03/02 10:46:02;;;;;;;31.27;20.45;;;4.40;99.90;;;;;;5052149;28;20037;-66
2023/03/02 10:48:28;;;;;;;33.50;21.42;;;4.40;99.90;;;;;;5051945;28;20045;-66
2023/03/02 10:50:56;;;;;;;28.45;18.48;;;4.60;99.90;;;;;;5052062;28;20033;-66
2023/03/02 10:53:21;;;;;;;28.13;18.27;;;4.80;99.90;;;;;;5051733;28;20102;-66
2023/03/02 10:55:51;;;;;;;28.60;19.20;;;4.80;99.90;;;;;;5051457;28;20037;-66
2023/03/02 10:58:21;;;;;;;26.80;17.88;;;4.90;99.90;;;;;;5051492;28;20500;-66
2023/03/02 11:01:00;;;;;;;24.25;16.45;;;5.00;99.90;;;;;;5051891;28;20048;-67
2023/03/02 11:03:27;;;;;;;26.52;16.95;;;5.10;99.90;;;;;;5051699;28;20037;-67
2023/03/02 11:05:53;;;;;;;24.80;16.05;;;5.60;99.90;;;;;;5052057;28;20048;-67
2023/03/02 11:08:24;;;;;;;23.55;16.13;;;6.10;99.90;;;;;;5051809;28;20041;-66
2023/03/02 11:11:00;;;;;;;25.85;17.20;;;6.70;99.90;;;;;;5034909;28;20048;-65
2023/03/02 11:13:31;;;;;;;25.70;18.65;;;7.30;99.90;;;;;;5051409;28;20037;-66
2023/03/02 11:15:59;;;;;;;21.92;15.55;;;8.00;99.90;;;;;;5051772;28;20037;-68
2023/03/02 11:18:41;;;;;;;22.38;16.27;;;8.20;99.90;;;;;;5051204;28;20055;-66
2023/03/02 11:21:19;;;;;;;23.08;17.35;;;8.10;99.90;;;;;;5051774;28;20609;-67
2023/03/02 11:23:54;;;;;;;24.10;17.67;;;8.20;99.90;;;;;;5051671;28;20033;-67
2023/03/02 11:26:39;;;;;;;23.25;16.33;;;8.60;99.90;;;;;;5051346;28;20048;-66
2023/03/02 11:29:11;;;;;;;22.25;16.10;;;8.90;99.90;;;;;;5051070;28;20049;-67
2023/03/02 11:31:49;;;;;;;22.67;15.93;;;9.30;99.90;;;;;;5051038;28;20037;-66
2023/03/02 11:34:24;;;;;;;20.17;15.35;;;9.70;99.90;;;;;;5051499;28;20045;-66
2023/03/02 11:37:14;;;;;;;20.80;16.27;;;10.00;99.90;;;;;;5034389;28;20106;-66
2023/03/02 11:39:56;;;;;;;21.55;16.10;;;10.20;99.90;;;;;;5051278;28;20045;-67
2023/03/02 11:42:29;;;;;;;19.38;15.02;;;10.50;99.90;;;;;;5050889;28;20049;-67
2023/03/02 11:44:55;;;;;;;;;;;10.80;99.90;;;;;;5051724;28;20048;-67
2023/03/02 11:47:21;;;;;;;20.20;14.77;;;10.90;99.90;;;;;;5084357;28;19925;-66
2023/03/02 11:49:54;;;;;;;20.38;15.27;;;11.10;99.90;;;;;;5050897;28;20040;-66
2023/03/02 11:52:22;;;;;;;22.67;16.35;;;11.30;99.90;;;;;;5050902;28;20041;-66
2023/03/02 11:55:15;;;;;;;19.73;15.57;;;11.40;99.90;;;;;;5050639;28;20049;-68
2023/03/02 11:57:48;;;;;;;20.15;15.25;;;11.60;99.90;;;;;;5050653;28;20118;-67
2023/03/02 12:00:17;;;;;;;21.50;15.90;;;11.90;99.90;;;;;;5051012;28;20096;-67
2023/03/02 12:02:42;;;;;;;18.75;15.23;;;12.00;99.90;;;;;;5050516;28;20036;-69
2023/03/02 12:05:27;;;;;;;20.33;15.85;;;11.80;99.90;;;;;;5050878;28;20392;-67
2023/03/02 12:07:58;;;;;;;20.45;16.05;;;11.80;99.90;;;;;;5049550;28;20045;-67
2023/03/02 12:10:34;;;;;;;19.92;16.17;;;11.60;99.90;;;;;;5050712;28;20388;-67
2023/03/02 12:13:23;;;;;;;21.05;16.02;;;11.40;99.90;;;;;;5050540;28;20041;-67
2023/03/02 12:15:49;;;;;;;19.55;15.68;;;11.30;99.90;;;;;;5050688;28;20095;-66
2023/03/02 12:18:21;;;;;;;19.50;14.80;;;11.40;99.90;;;;;;5050580;28;20479;-67
2023/03/02 12:21:02;;;;;;;19.77;15.02;;;11.40;99.90;;;;;;5049145;28;20083;-67
2023/03/02 12:23:30;;;;;;;20.90;15.98;;;11.30;99.90;;;;;;5050302;28;20059;-68
2023/03/02 12:26:20;;;;;;;19.27;15.02;;;11.30;99.90;;;;;;5050018;28;20439;-67
2023/03/02 12:29:04;;;;;;;19.50;15.52;;;11.10;99.90;;;;;;5050044;28;20037;-65
2023/03/02 12:31:44;;;;;;;22.40;15.77;;;10.90;99.90;;;;;;5050276;28;20044;-68
2023/03/02 12:34:37;;;;;;;17.70;14.45;;;10.70;99.90;;;;;;5050119;28;20041;-66
2023/03/02 12:37:17;;;;;;;18.85;14.23;;;10.40;99.90;;;;;;5045865;28;20049;-66
2023/03/02 12:40:26;;;;;;;19.02;14.57;;;10.30;99.90;;;;;;5049029;28;20666;-68
2023/03/02 12:43:04;;;;;;;20.90;16.25;;;10.40;99.90;;;;;;5032082;28;20049;-66
2023/03/02 12:45:52;;;;;;;18.05;14.95;;;10.40;99.90;;;;;;5032136;28;20040;-67
2023/03/02 12:48:36;;;;;;;19.50;15.60;;;10.30;99.90;;;;;;5032115;28;20061;-67